Mastronikos — SVA6956 — position and weather

sailwx.info

Track history (hours):
 
Tides and Currents Weather Stations Pressure Air Temp Water Temp Dewpoint Dewpoint Depression Visibility Wind Speed Wind Dir Waves Ship Positions

Mastronikos

Last reported at 2017-Nov-06 02:26 UTC. Time now 2017-Nov-20 06:07 UTC.
Position N 37°38' E 023°55'.
Warning: this ship's position is 14 days out of date.

Length 81 m.

Type: Cargo ship. MMSI: 239943900.

Date/timePositionNaut miles runAvg speedWind from/ knotsBaromVisibWave heightAir tempDewpointWater temp
2017-Nov-06 02:26N 37°38' E 023°55'4 9.0
2017-Nov-06 02:00N 37°39' E 023°50'4 8.6
2017-Nov-06 01:30N 37°39' E 023°45'4 7.8
2017-Nov-06 01:00N 37°42' E 023°41'5 9.0
2017-Nov-06 00:30N 37°46' E 023°38'4 8.8
2017-Nov-06 00:00N 37°49' E 023°35'4 8.6
2017-Nov-05 23:30N 37°50' E 023°30'4 8.7
2017-Nov-05 23:00N 37°52' E 023°25'4 7.8
2017-Nov-05 22:30N 37°56' E 023°23'3 6.7
2017-Nov-05 22:00N 37°59' E 023°25'4 8.7
2017-Nov-05 21:30N 38°01' E 023°30'3 6.6
2017-Nov-05 21:00N 38°01' E 023°34'1 3.0
2017-Nov-05 20:30N 38°02' E 023°35'0 0.0
2017-Nov-05 20:00N 38°02' E 023°35'0 0.0
2017-Nov-05 19:30N 38°02' E 023°35'0 0.0
2017-Nov-05 19:00N 38°02' E 023°35'0 0.0
2017-Nov-05 18:30N 38°02' E 023°35'0 0.0
2017-Nov-05 18:00N 38°02' E 023°35'0 0.0
2017-Nov-05 17:30N 38°02' E 023°35'0 0.0
2017-Nov-05 17:00N 38°02' E 023°35'0 0.0
2017-Nov-05 16:30N 38°02' E 023°35'0 0.0
2017-Nov-05 16:00N 38°02' E 023°35'0 0.0
2017-Nov-05 15:30N 38°02' E 023°35'0 0.0
2017-Nov-05 15:00N 38°02' E 023°35'0 0.0
2017-Nov-05 14:30N 38°02' E 023°35'0 0.0
2017-Nov-05 14:00N 38°02' E 023°35'0 0.0
2017-Nov-05 13:30N 38°02' E 023°35'0 0.0
2017-Nov-05 13:00N 38°02' E 023°35'0 0.0
2017-Nov-05 12:30N 38°02' E 023°35'0 0.0
2017-Nov-05 12:00N 38°02' E 023°35'0 0.0
2017-Nov-05 11:30N 38°02' E 023°35'0 0.0
2017-Nov-05 11:00N 38°02' E 023°35'0 0.0
2017-Nov-05 10:30N 38°02' E 023°35'0 0.0
2017-Nov-05 10:00N 38°02' E 023°35'0 0.0
2017-Nov-05 09:30N 38°02' E 023°35'0 0.4
2017-Nov-05 09:00N 38°02' E 023°35'0 1.0
2017-Nov-05 08:30N 38°02' E 023°35'0 0.7
2017-Nov-05 07:58N 38°01' E 023°35'0 0.0
2017-Nov-05 07:28N 38°01' E 023°35'0 0.1
2017-Nov-05 06:58N 38°01' E 023°35'0 0.0
2017-Nov-05 06:28N 38°01' E 023°35'0 0.0
2017-Nov-05 05:58N 38°01' E 023°35'0 0.0
2017-Nov-05 05:28N 38°01' E 023°35'0 0.0
2017-Nov-05 04:58N 38°01' E 023°35'0 0.0
2017-Nov-05 04:28N 38°01' E 023°35'0 0.0
2017-Nov-05 03:58N 38°01' E 023°35'0 0.0
2017-Nov-05 03:28N 38°01' E 023°35'0 0.0
2017-Nov-05 02:58N 38°01' E 023°35'0 0.1
2017-Nov-05 02:28N 38°01' E 023°35'0 0.0
2017-Nov-05 01:58N 38°01' E 023°35'0 0.0
2017-Nov-05 01:28N 38°01' E 023°35'0 0.0
2017-Nov-05 00:52N 38°01' E 023°35'0 0.0
2017-Nov-05 00:28N 38°01' E 023°35'0 0.0
2017-Nov-04 23:58N 38°01' E 023°35'0 0.0
2017-Nov-04 23:28N 38°01' E 023°35'0 0.0
2017-Nov-04 22:58N 38°01' E 023°35'0 0.0
2017-Nov-04 22:28N 38°01' E 023°35'0 0.0
2017-Nov-04 21:55N 38°01' E 023°35'0 0.0
2017-Nov-04 21:28N 38°01' E 023°35'0 0.0
2017-Nov-04 20:58N 38°01' E 023°35'0 0.0
2017-Nov-04 20:28N 38°01' E 023°35'0 0.0
2017-Nov-04 19:58N 38°01' E 023°35'0 0.0
2017-Nov-04 19:28N 38°01' E 023°35'0 0.1
2017-Nov-04 18:55N 38°01' E 023°35'0 0.0
2017-Nov-04 18:22N 38°01' E 023°35'0 0.0
2017-Nov-04 17:58N 38°01' E 023°35'0 0.0
2017-Nov-04 17:28N 38°01' E 023°35'0 0.0
2017-Nov-04 17:00N 38°01' E 023°35'0 0.0
2017-Nov-04 16:30N 38°01' E 023°35'1 1.8
2017-Nov-04 16:00N 38°02' E 023°35'0 0.0
2017-Nov-04 15:30N 38°02' E 023°35'0 0.0
2017-Nov-04 14:57N 38°02' E 023°35'0 0.0
2017-Nov-04 14:03N 38°02' E 023°35'0 0.0
2017-Nov-04 13:57N 38°02' E 023°35'0 0.0
2017-Nov-04 13:30N 38°02' E 023°35'0 0.0
2017-Nov-04 13:00N 38°02' E 023°35'0 0.0
2017-Nov-04 12:30N 38°02' E 023°35'0 0.0
2017-Nov-04 12:00N 38°02' E 023°35'0 0.0
2017-Nov-04 11:30N 38°02' E 023°35'0 0.0
2017-Nov-04 10:57N 38°02' E 023°35'0 0.0
2017-Nov-04 10:21N 38°02' E 023°35'0 0.0
2017-Nov-04 09:57N 38°02' E 023°35'0 0.0
2017-Nov-04 08:39N 38°02' E 023°35'0 0.0
2017-Nov-04 08:15N 38°02' E 023°35'0 0.0
2017-Nov-04 07:57N 38°02' E 023°35'0 0.0
2017-Nov-04 06:39N 38°02' E 023°35'0 0.0
2017-Nov-04 06:27N 38°02' E 023°35'0 0.0
2017-Nov-04 05:54N 38°02' E 023°35'0 0.0
2017-Nov-04 05:30N 38°02' E 023°35'0 0.0
2017-Nov-04 05:00N 38°02' E 023°35'0 0.0
2017-Nov-04 04:30N 38°02' E 023°35'0 0.0
2017-Nov-04 04:00N 38°02' E 023°35'0 0.0
2017-Nov-04 03:27N 38°02' E 023°35'0 0.0
2017-Nov-04 03:00N 38°02' E 023°35'0 0.0
2017-Nov-04 02:30N 38°02' E 023°35'0 0.0
2017-Nov-04 02:00N 38°02' E 023°35'0 0.0
2017-Nov-04 01:30N 38°02' E 023°35'0 0.0
2017-Nov-04 01:00N 38°02' E 023°35'0 0.0
2017-Nov-04 00:30N 38°02' E 023°35'0 0.0
2017-Nov-04 00:00N 38°02' E 023°35'0 0.0
2017-Nov-03 23:21N 38°02' E 023°35'0 0.0
2017-Nov-03 22:57N 38°02' E 023°35'0 0.0
2017-Nov-03 22:27N 38°02' E 023°35'0 0.0
2017-Nov-03 21:57N 38°02' E 023°35'0 0.0
2017-Nov-03 21:27N 38°02' E 023°35'0 0.0
2017-Nov-03 21:00N 38°02' E 023°35'0 0.1
2017-Nov-03 20:27N 38°02' E 023°35'1 1.8
2017-Nov-03 20:00N 38°01' E 023°35'0 0.1
2017-Nov-03 19:30N 38°01' E 023°35'0 0.1
2017-Nov-03 19:00N 38°01' E 023°35'0 0.1
2017-Nov-03 18:30N 38°01' E 023°35'0 0.0
2017-Nov-03 18:00N 38°01' E 023°35'0 0.0
2017-Nov-03 17:30N 38°01' E 023°35'0 0.0
2017-Nov-03 17:00N 38°01' E 023°35'0 0.1
2017-Nov-03 16:30N 38°01' E 023°35'0 0.0
2017-Nov-03 16:00N 38°01' E 023°35'0 0.1
2017-Nov-03 15:30N 38°01' E 023°35'0 0.1
2017-Nov-03 15:00N 38°01' E 023°35'0 0.1
2017-Nov-03 14:30N 38°01' E 023°35'0 0.0
2017-Nov-03 14:00N 38°01' E 023°35'0 0.0
2017-Nov-03 13:30N 38°01' E 023°35'0 0.0
2017-Nov-03 13:00N 38°01' E 023°35'0 0.0
2017-Nov-03 12:30N 38°01' E 023°35'0 0.0
2017-Nov-03 12:00N 38°01' E 023°35'0 0.1
2017-Nov-03 11:30N 38°01' E 023°35'0 0.0
2017-Nov-03 11:00N 38°01' E 023°35'0 0.0
2017-Nov-03 10:30N 38°01' E 023°35'0 0.0
2017-Nov-03 10:00N 38°01' E 023°35'0 0.2
2017-Nov-03 09:30N 38°01' E 023°35'0 0.0
2017-Nov-03 09:00N 38°01' E 023°35'0 0.0
2017-Nov-03 08:30N 38°01' E 023°35'0 0.0
2017-Nov-03 08:00N 38°01' E 023°35'0 0.0
2017-Nov-03 07:30N 38°01' E 023°35'0 0.0
2017-Nov-03 06:54N 38°01' E 023°35'0 0.0
2017-Nov-03 06:30N 38°01' E 023°35'0 0.0
2017-Nov-03 06:00N 38°01' E 023°35'0 0.0
2017-Nov-03 05:30N 38°01' E 023°35'0 0.0
2017-Nov-03 05:00N 38°01' E 023°35'0 0.0
2017-Nov-03 04:30N 38°01' E 023°35'0 0.0
2017-Nov-03 04:00N 38°01' E 023°35'0 0.0
2017-Nov-03 03:30N 38°01' E 023°35'0 0.0
2017-Nov-03 03:01N 38°01' E 023°35'1 1.3
2017-Nov-03 02:30N 38°02' E 023°35'0 0.5
2017-Nov-03 02:01N 38°02' E 023°35'0 0.0
2017-Nov-03 01:31N 38°02' E 023°35'0 0.0
2017-Nov-03 01:00N 38°02' E 023°35'0 0.0
2017-Nov-03 00:30N 38°02' E 023°35'0 0.0
2017-Nov-03 00:00N 38°02' E 023°35'0 0.0
2017-Nov-02 23:30N 38°02' E 023°35'0 0.0
2017-Nov-02 23:00N 38°02' E 023°35'0 0.0
2017-Nov-02 22:22N 38°02' E 023°35'0 0.0
2017-Nov-02 22:00N 38°02' E 023°35'0 0.0
2017-Nov-02 21:13N 38°02' E 023°35'0 0.0
2017-Nov-02 21:00N 38°02' E 023°35'0 0.0
2017-Nov-02 20:30N 38°02' E 023°35'0 0.0
2017-Nov-02 20:00N 38°02' E 023°35'0 0.0
2017-Nov-02 19:31N 38°02' E 023°35'0 0.0
2017-Nov-02 19:00N 38°02' E 023°35'0 0.0
2017-Nov-02 18:31N 38°02' E 023°35'0 0.0
2017-Nov-02 18:01N 38°02' E 023°35'0 0.0
2017-Nov-02 17:30N 38°02' E 023°35'0 0.0
2017-Nov-02 17:00N 38°02' E 023°35'0 0.0
2017-Nov-02 16:30N 38°02' E 023°35'0 0.0
2017-Nov-02 16:01N 38°02' E 023°35'0 0.0
2017-Nov-02 15:31N 38°02' E 023°35'0 0.0
2017-Nov-02 15:01N 38°02' E 023°35'0 0.0
2017-Nov-02 14:30N 38°02' E 023°35'0 0.0
2017-Nov-02 14:00N 38°02' E 023°35'0 0.0
2017-Nov-02 13:30N 38°02' E 023°35'0 0.0
2017-Nov-02 13:00N 38°02' E 023°35'0 0.0
2017-Nov-02 12:30N 38°02' E 023°35'0 0.0
2017-Nov-02 12:00N 38°02' E 023°35'0 0.0
2017-Nov-02 11:30N 38°02' E 023°35'0 0.0
2017-Nov-02 11:00N 38°02' E 023°35'0 0.0
2017-Nov-02 10:30N 38°02' E 023°35'0 0.0
2017-Nov-02 10:00N 38°02' E 023°35'0 0.0
2017-Nov-02 09:31N 38°02' E 023°35'1 1.9
2017-Nov-02 09:01N 38°01' E 023°35'0 0.0
2017-Nov-02 08:28N 38°01' E 023°35'0 0.0
2017-Nov-02 07:58N 38°01' E 023°35'0 0.0
2017-Nov-02 07:28N 38°01' E 023°35'0 0.0
2017-Nov-02 06:58N 38°01' E 023°35'0 0.0
2017-Nov-02 06:28N 38°01' E 023°35'0 0.0
2017-Nov-02 05:58N 38°01' E 023°35'0 0.0
2017-Nov-02 05:28N 38°01' E 023°35'0 0.0
2017-Nov-02 04:58N 38°01' E 023°35'0 0.1
2017-Nov-02 04:28N 38°01' E 023°35'0 0.0
2017-Nov-02 03:52N 38°01' E 023°35'0 0.0
2017-Nov-02 03:28N 38°01' E 023°35'0 0.0
2017-Nov-02 02:58N 38°01' E 023°35'0 0.1
2017-Nov-02 02:28N 38°01' E 023°35'0 0.0
2017-Nov-02 01:58N 38°01' E 023°35'0 0.1
2017-Nov-02 01:28N 38°01' E 023°35'0 0.0
2017-Nov-02 00:55N 38°01' E 023°35'0 0.0
2017-Nov-02 00:22N 38°01' E 023°35'0 0.0
2017-Nov-01 23:58N 38°01' E 023°35'0 0.0
2017-Nov-01 23:28N 38°01' E 023°35'0 0.0
2017-Nov-01 22:59N 38°01' E 023°35'0 0.4
2017-Nov-01 22:30N 38°01' E 023°35'1 1.9
2017-Nov-01 21:58N 38°02' E 023°35'0 0.0
2017-Nov-01 21:28N 38°02' E 023°35'0 0.0
2017-Nov-01 20:58N 38°02' E 023°35'0 0.0
2017-Nov-01 20:28N 38°02' E 023°35'0 0.0
2017-Nov-01 19:58N 38°02' E 023°35'0 0.0
2017-Nov-01 19:28N 38°02' E 023°35'0 0.0
2017-Nov-01 18:58N 38°02' E 023°35'0 0.0
2017-Nov-01 18:28N 38°02' E 023°35'1 0.1
2017-Nov-01 01:58N 38°01' E 023°35'0 0.0
2017-Nov-01 01:28N 38°01' E 023°35'0 0.0
2017-Nov-01 00:58N 38°01' E 023°35'0 0.1
2017-Nov-01 00:28N 38°01' E 023°35'0 0.1
2017-Oct-31 23:52N 38°01' E 023°35'0 0.0
2017-Oct-31 23:22N 38°01' E 023°35'0 0.0
2017-Oct-31 22:58N 38°01' E 023°35'0 0.1
2017-Oct-31 22:28N 38°01' E 023°35'0 0.0
2017-Oct-31 22:00N 38°01' E 023°35'1 1.9
2017-Oct-31 21:30N 38°02' E 023°35'0 0.0
2017-Oct-31 20:57N 38°02' E 023°35'0 0.0
2017-Oct-31 20:15N 38°02' E 023°35'0 0.0
2017-Oct-31 19:45N 38°02' E 023°35'0 0.0
2017-Oct-31 19:21N 38°02' E 023°35'0 0.0
2017-Oct-31 18:57N 38°02' E 023°35'0 0.0
2017-Oct-31 18:27N 38°02' E 023°35'0 0.0
2017-Oct-31 17:57N 38°02' E 023°35'0 0.0
2017-Oct-31 17:30N 38°02' E 023°35'0 0.0
2017-Oct-31 16:54N 38°02' E 023°35'0 0.0
2017-Oct-31 16:27N 38°02' E 023°35'0 0.0
2017-Oct-31 15:57N 38°02' E 023°35'0 0.0
2017-Oct-31 15:27N 38°02' E 023°35'0 0.0
2017-Oct-31 14:57N 38°02' E 023°35'0 0.0
2017-Oct-31 14:30N 38°02' E 023°35'0 0.0
2017-Oct-31 13:57N 38°02' E 023°35'0 0.0
2017-Oct-31 13:30N 38°02' E 023°35'0 0.0
2017-Oct-31 12:57N 38°02' E 023°35'0 0.0
2017-Oct-31 12:27N 38°02' E 023°35'0 0.0
2017-Oct-31 11:57N 38°02' E 023°35'0 0.0
2017-Oct-31 11:21N 38°02' E 023°35'0 0.0
2017-Oct-31 10:57N 38°02' E 023°35'0 0.0
2017-Oct-31 10:30N 38°02' E 023°35'1 1.5
2017-Oct-31 10:01N 38°01' E 023°35'0 0.3
2017-Oct-31 09:20N 38°01' E 023°35'0 0.0
2017-Oct-31 08:59N 38°01' E 023°35'0 0.0
2017-Oct-31 08:26N 38°01' E 023°35'0 0.0
2017-Oct-31 07:56N 38°01' E 023°35'0 0.0
2017-Oct-31 07:26N 38°01' E 023°35'0 0.0
2017-Oct-31 06:59N 38°01' E 023°35'0 0.0
2017-Oct-31 06:26N 38°01' E 023°35'0 0.0
2017-Oct-31 05:59N 38°01' E 023°35'0 0.0
2017-Oct-31 05:26N 38°01' E 023°35'0 0.0
2017-Oct-31 04:56N 38°01' E 023°35'0 0.0
2017-Oct-31 04:26N 38°01' E 023°35'0 0.0
2017-Oct-31 03:56N 38°01' E 023°35'0 0.0
2017-Oct-31 03:29N 38°01' E 023°35'0 0.0
2017-Oct-31 02:56N 38°01' E 023°35'0 0.0
2017-Oct-31 02:26N 38°01' E 023°35'0 0.0
2017-Oct-31 01:59N 38°01' E 023°35'0 0.0
2017-Oct-31 01:26N 38°01' E 023°35'0 0.1
2017-Oct-31 00:59N 38°01' E 023°35'0 0.1
2017-Oct-31 00:29N 38°01' E 023°35'0 0.0
2017-Oct-30 23:59N 38°01' E 023°35'0 0.0
2017-Oct-30 23:29N 38°01' E 023°35'  
Track history (hours):
 
Tides and Currents Weather Stations Pressure Air Temp Water Temp Dewpoint Dewpoint Depression Visibility Wind Speed Wind Dir Waves Ship Positions

Mastronikos

Last reported at 2017-Nov-06 02:26 UTC. Time now 2017-Nov-20 06:07 UTC.
Position N 37°38' E 023°55'.
Warning: this ship's position is 14 days out of date.

Length 81 m.

Type: Cargo ship. MMSI: 239943900.

Date/timePositionNaut miles runAvg speedWind from/ knotsBaromVisibWave heightAir tempDewpointWater temp
2017-Nov-06 02:26N 37°38' E 023°55'4 9.0
2017-Nov-06 02:00N 37°39' E 023°50'4 8.6
2017-Nov-06 01:30N 37°39' E 023°45'4 7.8
2017-Nov-06 01:00N 37°42' E 023°41'5 9.0
2017-Nov-06 00:30N 37°46' E 023°38'4 8.8
2017-Nov-06 00:00N 37°49' E 023°35'4 8.6
2017-Nov-05 23:30N 37°50' E 023°30'4 8.7
2017-Nov-05 23:00N 37°52' E 023°25'4 7.8
2017-Nov-05 22:30N 37°56' E 023°23'3 6.7
2017-Nov-05 22:00N 37°59' E 023°25'4 8.7
2017-Nov-05 21:30N 38°01' E 023°30'3 6.6
2017-Nov-05 21:00N 38°01' E 023°34'1 3.0
2017-Nov-05 20:30N 38°02' E 023°35'0 0.0
2017-Nov-05 20:00N 38°02' E 023°35'0 0.0
2017-Nov-05 19:30N 38°02' E 023°35'0 0.0
2017-Nov-05 19:00N 38°02' E 023°35'0 0.0
2017-Nov-05 18:30N 38°02' E 023°35'0 0.0
2017-Nov-05 18:00N 38°02' E 023°35'0 0.0
2017-Nov-05 17:30N 38°02' E 023°35'0 0.0
2017-Nov-05 17:00N 38°02' E 023°35'0 0.0
2017-Nov-05 16:30N 38°02' E 023°35'0 0.0
2017-Nov-05 16:00N 38°02' E 023°35'0 0.0
2017-Nov-05 15:30N 38°02' E 023°35'0 0.0
2017-Nov-05 15:00N 38°02' E 023°35'0 0.0
2017-Nov-05 14:30N 38°02' E 023°35'0 0.0
2017-Nov-05 14:00N 38°02' E 023°35'0 0.0
2017-Nov-05 13:30N 38°02' E 023°35'0 0.0
2017-Nov-05 13:00N 38°02' E 023°35'0 0.0
2017-Nov-05 12:30N 38°02' E 023°35'0 0.0
2017-Nov-05 12:00N 38°02' E 023°35'0 0.0
2017-Nov-05 11:30N 38°02' E 023°35'0 0.0
2017-Nov-05 11:00N 38°02' E 023°35'0 0.0
2017-Nov-05 10:30N 38°02' E 023°35'0 0.0
2017-Nov-05 10:00N 38°02' E 023°35'0 0.0
2017-Nov-05 09:30N 38°02' E 023°35'0 0.4
2017-Nov-05 09:00N 38°02' E 023°35'0 1.0
2017-Nov-05 08:30N 38°02' E 023°35'0 0.7
2017-Nov-05 07:58N 38°01' E 023°35'0 0.0
2017-Nov-05 07:28N 38°01' E 023°35'0 0.1
2017-Nov-05 06:58N 38°01' E 023°35'0 0.0
2017-Nov-05 06:28N 38°01' E 023°35'0 0.0
2017-Nov-05 05:58N 38°01' E 023°35'0 0.0
2017-Nov-05 05:28N 38°01' E 023°35'0 0.0
2017-Nov-05 04:58N 38°01' E 023°35'0 0.0
2017-Nov-05 04:28N 38°01' E 023°35'0 0.0
2017-Nov-05 03:58N 38°01' E 023°35'0 0.0
2017-Nov-05 03:28N 38°01' E 023°35'0 0.0
2017-Nov-05 02:58N 38°01' E 023°35'0 0.1
2017-Nov-05 02:28N 38°01' E 023°35'0 0.0
2017-Nov-05 01:58N 38°01' E 023°35'0 0.0
2017-Nov-05 01:28N 38°01' E 023°35'0 0.0
2017-Nov-05 00:52N 38°01' E 023°35'0 0.0
2017-Nov-05 00:28N 38°01' E 023°35'0 0.0
2017-Nov-04 23:58N 38°01' E 023°35'0 0.0
2017-Nov-04 23:28N 38°01' E 023°35'0 0.0
2017-Nov-04 22:58N 38°01' E 023°35'0 0.0
2017-Nov-04 22:28N 38°01' E 023°35'0 0.0
2017-Nov-04 21:55N 38°01' E 023°35'0 0.0
2017-Nov-04 21:28N 38°01' E 023°35'0 0.0
2017-Nov-04 20:58N 38°01' E 023°35'0 0.0
2017-Nov-04 20:28N 38°01' E 023°35'0 0.0
2017-Nov-04 19:58N 38°01' E 023°35'0 0.0
2017-Nov-04 19:28N 38°01' E 023°35'0 0.1
2017-Nov-04 18:55N 38°01' E 023°35'0 0.0
2017-Nov-04 18:22N 38°01' E 023°35'0 0.0
2017-Nov-04 17:58N 38°01' E 023°35'0 0.0
2017-Nov-04 17:28N 38°01' E 023°35'0 0.0
2017-Nov-04 17:00N 38°01' E 023°35'0 0.0
2017-Nov-04 16:30N 38°01' E 023°35'1 1.8
2017-Nov-04 16:00N 38°02' E 023°35'0 0.0
2017-Nov-04 15:30N 38°02' E 023°35'0 0.0
2017-Nov-04 14:57N 38°02' E 023°35'0 0.0
2017-Nov-04 14:03N 38°02' E 023°35'0 0.0
2017-Nov-04 13:57N 38°02' E 023°35'0 0.0
2017-Nov-04 13:30N 38°02' E 023°35'0 0.0
2017-Nov-04 13:00N 38°02' E 023°35'0 0.0
2017-Nov-04 12:30N 38°02' E 023°35'0 0.0
2017-Nov-04 12:00N 38°02' E 023°35'0 0.0
2017-Nov-04 11:30N 38°02' E 023°35'0 0.0
2017-Nov-04 10:57N 38°02' E 023°35'0 0.0
2017-Nov-04 10:21N 38°02' E 023°35'0 0.0
2017-Nov-04 09:57N 38°02' E 023°35'0 0.0
2017-Nov-04 08:39N 38°02' E 023°35'0 0.0
2017-Nov-04 08:15N 38°02' E 023°35'0 0.0
2017-Nov-04 07:57N 38°02' E 023°35'0 0.0
2017-Nov-04 06:39N 38°02' E 023°35'0 0.0
2017-Nov-04 06:27N 38°02' E 023°35'0 0.0
2017-Nov-04 05:54N 38°02' E 023°35'0 0.0
2017-Nov-04 05:30N 38°02' E 023°35'0 0.0
2017-Nov-04 05:00N 38°02' E 023°35'0 0.0
2017-Nov-04 04:30N 38°02' E 023°35'0 0.0
2017-Nov-04 04:00N 38°02' E 023°35'0 0.0
2017-Nov-04 03:27N 38°02' E 023°35'0 0.0
2017-Nov-04 03:00N 38°02' E 023°35'0 0.0
2017-Nov-04 02:30N 38°02' E 023°35'0 0.0
2017-Nov-04 02:00N 38°02' E 023°35'0 0.0
2017-Nov-04 01:30N 38°02' E 023°35'0 0.0
2017-Nov-04 01:00N 38°02' E 023°35'0 0.0
2017-Nov-04 00:30N 38°02' E 023°35'0 0.0
2017-Nov-04 00:00N 38°02' E 023°35'0 0.0
2017-Nov-03 23:21N 38°02' E 023°35'0 0.0
2017-Nov-03 22:57N 38°02' E 023°35'0 0.0
2017-Nov-03 22:27N 38°02' E 023°35'0 0.0
2017-Nov-03 21:57N 38°02' E 023°35'0 0.0
2017-Nov-03 21:27N 38°02' E 023°35'0 0.0
2017-Nov-03 21:00N 38°02' E 023°35'0 0.1
2017-Nov-03 20:27N 38°02' E 023°35'1 1.8
2017-Nov-03 20:00N 38°01' E 023°35'0 0.1
2017-Nov-03 19:30N 38°01' E 023°35'0 0.1
2017-Nov-03 19:00N 38°01' E 023°35'0 0.1
2017-Nov-03 18:30N 38°01' E 023°35'0 0.0
2017-Nov-03 18:00N 38°01' E 023°35'0 0.0
2017-Nov-03 17:30N 38°01' E 023°35'0 0.0
2017-Nov-03 17:00N 38°01' E 023°35'0 0.1
2017-Nov-03 16:30N 38°01' E 023°35'0 0.0
2017-Nov-03 16:00N 38°01' E 023°35'0 0.1
2017-Nov-03 15:30N 38°01' E 023°35'0 0.1
2017-Nov-03 15:00N 38°01' E 023°35'0 0.1
2017-Nov-03 14:30N 38°01' E 023°35'0 0.0
2017-Nov-03 14:00N 38°01' E 023°35'0 0.0
2017-Nov-03 13:30N 38°01' E 023°35'0 0.0
2017-Nov-03 13:00N 38°01' E 023°35'0 0.0
2017-Nov-03 12:30N 38°01' E 023°35'0 0.0
2017-Nov-03 12:00N 38°01' E 023°35'0 0.1
2017-Nov-03 11:30N 38°01' E 023°35'0 0.0
2017-Nov-03 11:00N 38°01' E 023°35'0 0.0
2017-Nov-03 10:30N 38°01' E 023°35'0 0.0
2017-Nov-03 10:00N 38°01' E 023°35'0 0.2
2017-Nov-03 09:30N 38°01' E 023°35'0 0.0
2017-Nov-03 09:00N 38°01' E 023°35'0 0.0
2017-Nov-03 08:30N 38°01' E 023°35'0 0.0
2017-Nov-03 08:00N 38°01' E 023°35'0 0.0
2017-Nov-03 07:30N 38°01' E 023°35'0 0.0
2017-Nov-03 06:54N 38°01' E 023°35'0 0.0
2017-Nov-03 06:30N 38°01' E 023°35'0 0.0
2017-Nov-03 06:00N 38°01' E 023°35'0 0.0
2017-Nov-03 05:30N 38°01' E 023°35'0 0.0
2017-Nov-03 05:00N 38°01' E 023°35'0 0.0
2017-Nov-03 04:30N 38°01' E 023°35'0 0.0
2017-Nov-03 04:00N 38°01' E 023°35'0 0.0
2017-Nov-03 03:30N 38°01' E 023°35'0 0.0
2017-Nov-03 03:01N 38°01' E 023°35'1 1.3
2017-Nov-03 02:30N 38°02' E 023°35'0 0.5
2017-Nov-03 02:01N 38°02' E 023°35'0 0.0
2017-Nov-03 01:31N 38°02' E 023°35'0 0.0
2017-Nov-03 01:00N 38°02' E 023°35'0 0.0
2017-Nov-03 00:30N 38°02' E 023°35'0 0.0
2017-Nov-03 00:00N 38°02' E 023°35'0 0.0
2017-Nov-02 23:30N 38°02' E 023°35'0 0.0
2017-Nov-02 23:00N 38°02' E 023°35'0 0.0
2017-Nov-02 22:22N 38°02' E 023°35'0 0.0
2017-Nov-02 22:00N 38°02' E 023°35'0 0.0
2017-Nov-02 21:13N 38°02' E 023°35'0 0.0
2017-Nov-02 21:00N 38°02' E 023°35'0 0.0
2017-Nov-02 20:30N 38°02' E 023°35'0 0.0
2017-Nov-02 20:00N 38°02' E 023°35'0 0.0
2017-Nov-02 19:31N 38°02' E 023°35'0 0.0
2017-Nov-02 19:00N 38°02' E 023°35'0 0.0
2017-Nov-02 18:31N 38°02' E 023°35'0 0.0
2017-Nov-02 18:01N 38°02' E 023°35'0 0.0
2017-Nov-02 17:30N 38°02' E 023°35'0 0.0
2017-Nov-02 17:00N 38°02' E 023°35'0 0.0
2017-Nov-02 16:30N 38°02' E 023°35'0 0.0
2017-Nov-02 16:01N 38°02' E 023°35'0 0.0
2017-Nov-02 15:31N 38°02' E 023°35'0 0.0
2017-Nov-02 15:01N 38°02' E 023°35'0 0.0
2017-Nov-02 14:30N 38°02' E 023°35'0 0.0
2017-Nov-02 14:00N 38°02' E 023°35'0 0.0
2017-Nov-02 13:30N 38°02' E 023°35'0 0.0
2017-Nov-02 13:00N 38°02' E 023°35'0 0.0
2017-Nov-02 12:30N 38°02' E 023°35'0 0.0
2017-Nov-02 12:00N 38°02' E 023°35'0 0.0
2017-Nov-02 11:30N 38°02' E 023°35'0 0.0
2017-Nov-02 11:00N 38°02' E 023°35'0 0.0
2017-Nov-02 10:30N 38°02' E 023°35'0 0.0
2017-Nov-02 10:00N 38°02' E 023°35'0 0.0
2017-Nov-02 09:31N 38°02' E 023°35'1 1.9
2017-Nov-02 09:01N 38°01' E 023°35'0 0.0
2017-Nov-02 08:28N 38°01' E 023°35'0 0.0
2017-Nov-02 07:58N 38°01' E 023°35'0 0.0
2017-Nov-02 07:28N 38°01' E 023°35'0 0.0
2017-Nov-02 06:58N 38°01' E 023°35'0 0.0
2017-Nov-02 06:28N 38°01' E 023°35'0 0.0
2017-Nov-02 05:58N 38°01' E 023°35'0 0.0
2017-Nov-02 05:28N 38°01' E 023°35'0 0.0
2017-Nov-02 04:58N 38°01' E 023°35'0 0.1
2017-Nov-02 04:28N 38°01' E 023°35'0 0.0
2017-Nov-02 03:52N 38°01' E 023°35'0 0.0
2017-Nov-02 03:28N 38°01' E 023°35'0 0.0
2017-Nov-02 02:58N 38°01' E 023°35'0 0.1
2017-Nov-02 02:28N 38°01' E 023°35'0 0.0
2017-Nov-02 01:58N 38°01' E 023°35'0 0.1
2017-Nov-02 01:28N 38°01' E 023°35'0 0.0
2017-Nov-02 00:55N 38°01' E 023°35'0 0.0
2017-Nov-02 00:22N 38°01' E 023°35'0 0.0
2017-Nov-01 23:58N 38°01' E 023°35'0 0.0
2017-Nov-01 23:28N 38°01' E 023°35'0 0.0
2017-Nov-01 22:59N 38°01' E 023°35'0 0.4
2017-Nov-01 22:30N 38°01' E 023°35'1 1.9
2017-Nov-01 21:58N 38°02' E 023°35'0 0.0
2017-Nov-01 21:28N 38°02' E 023°35'0 0.0
2017-Nov-01 20:58N 38°02' E 023°35'0 0.0
2017-Nov-01 20:28N 38°02' E 023°35'0 0.0
2017-Nov-01 19:58N 38°02' E 023°35'0 0.0
2017-Nov-01 19:28N 38°02' E 023°35'0 0.0
2017-Nov-01 18:58N 38°02' E 023°35'0 0.0
2017-Nov-01 18:28N 38°02' E 023°35'1 0.1
2017-Nov-01 01:58N 38°01' E 023°35'0 0.0
2017-Nov-01 01:28N 38°01' E 023°35'0 0.0
2017-Nov-01 00:58N 38°01' E 023°35'0 0.1
2017-Nov-01 00:28N 38°01' E 023°35'0 0.1
2017-Oct-31 23:52N 38°01' E 023°35'0 0.0
2017-Oct-31 23:22N 38°01' E 023°35'0 0.0
2017-Oct-31 22:58N 38°01' E 023°35'0 0.1
2017-Oct-31 22:28N 38°01' E 023°35'0 0.0
2017-Oct-31 22:00N 38°01' E 023°35'1 1.9
2017-Oct-31 21:30N 38°02' E 023°35'0 0.0
2017-Oct-31 20:57N 38°02' E 023°35'0 0.0
2017-Oct-31 20:15N 38°02' E 023°35'0 0.0
2017-Oct-31 19:45N 38°02' E 023°35'0 0.0
2017-Oct-31 19:21N 38°02' E 023°35'0 0.0
2017-Oct-31 18:57N 38°02' E 023°35'0 0.0
2017-Oct-31 18:27N 38°02' E 023°35'0 0.0
2017-Oct-31 17:57N 38°02' E 023°35'0 0.0
2017-Oct-31 17:30N 38°02' E 023°35'0 0.0
2017-Oct-31 16:54N 38°02' E 023°35'0 0.0
2017-Oct-31 16:27N 38°02' E 023°35'0 0.0
2017-Oct-31 15:57N 38°02' E 023°35'0 0.0
2017-Oct-31 15:27N 38°02' E 023°35'0 0.0
2017-Oct-31 14:57N 38°02' E 023°35'0 0.0
2017-Oct-31 14:30N 38°02' E 023°35'0 0.0
2017-Oct-31 13:57N 38°02' E 023°35'0 0.0
2017-Oct-31 13:30N 38°02' E 023°35'0 0.0
2017-Oct-31 12:57N 38°02' E 023°35'0 0.0
2017-Oct-31 12:27N 38°02' E 023°35'0 0.0
2017-Oct-31 11:57N 38°02' E 023°35'0 0.0
2017-Oct-31 11:21N 38°02' E 023°35'0 0.0
2017-Oct-31 10:57N 38°02' E 023°35'0 0.0
2017-Oct-31 10:30N 38°02' E 023°35'1 1.5
2017-Oct-31 10:01N 38°01' E 023°35'0 0.3
2017-Oct-31 09:20N 38°01' E 023°35'0 0.0
2017-Oct-31 08:59N 38°01' E 023°35'0 0.0
2017-Oct-31 08:26N 38°01' E 023°35'0 0.0
2017-Oct-31 07:56N 38°01' E 023°35'0 0.0
2017-Oct-31 07:26N 38°01' E 023°35'0 0.0
2017-Oct-31 06:59N 38°01' E 023°35'0 0.0
2017-Oct-31 06:26N 38°01' E 023°35'0 0.0
2017-Oct-31 05:59N 38°01' E 023°35'0 0.0
2017-Oct-31 05:26N 38°01' E 023°35'0 0.0
2017-Oct-31 04:56N 38°01' E 023°35'0 0.0
2017-Oct-31 04:26N 38°01' E 023°35'0 0.0
2017-Oct-31 03:56N 38°01' E 023°35'0 0.0
2017-Oct-31 03:29N 38°01' E 023°35'0 0.0
2017-Oct-31 02:56N 38°01' E 023°35'0 0.0
2017-Oct-31 02:26N 38°01' E 023°35'0 0.0
2017-Oct-31 01:59N 38°01' E 023°35'0 0.0
2017-Oct-31 01:26N 38°01' E 023°35'0 0.1
2017-Oct-31 00:59N 38°01' E 023°35'0 0.1
2017-Oct-31 00:29N 38°01' E 023°35'0 0.0
2017-Oct-30 23:59N 38°01' E 023°35'0 0.0
2017-Oct-30 23:29N 38°01' E 023°35'  

Dump ship's entire track history